Time;durP1;ratioP1;P1;durP2;ratioP2;P2;SDS_P1;SDS_P2;PMS_P1;PMS_P2;Temp;Humidity;BMP_temperature;BMP_pressure;BME280_temperature;BME280_humidity;BME280_pressure;Samples;Min_cycle;Max_cycle;Signal;HPM_P1;HPM_P2
2023/07/01 00:01:06;;;;;;;;;1.00;1.00;;;;;21.72;100.00;100845.44;5016346;28;54967;-77
2023/07/01 00:03:31;;;;;;;;;3.67;1.00;;;;;21.72;100.00;100834.69;5016776;28;45435;-75
2023/07/01 00:06:01;;;;;;;;;2.33;2.00;;;;;21.74;100.00;100831.97;5014369;28;45761;-75
2023/07/01 00:08:26;;;;;;;;;1.00;1.00;;;;;21.71;100.00;100830.25;5016730;28;46326;-76
2023/07/01 00:10:55;;;;;;;;;4.00;2.00;;;;;21.73;100.00;100835.56;5016205;28;45266;-76
2023/07/01 00:13:20;;;;;;;;;2.33;2.33;;;;;21.63;100.00;100833.22;4996873;28;45428;-76
2023/07/01 00:15:45;;;;;;;;;1.67;1.67;;;;;21.60;100.00;100821.69;5015423;28;64706;-76
2023/07/01 00:18:11;;;;;;;;;1.00;1.00;;;;;21.58;100.00;100821.75;5015502;28;62864;-76
2023/07/01 00:20:36;;;;;;;;;1.00;1.00;;;;;21.63;100.00;100826.97;5015658;28;69038;-76
2023/07/01 00:23:01;;;;;;;;;1.00;1.00;;;;;21.66;100.00;100818.78;5015321;28;61439;-75
2023/07/01 00:25:27;;;;;;;;;1.00;1.00;;;;;21.66;100.00;100805.34;5016454;28;50328;-77
2023/07/01 00:27:52;;;;;;;;;2.00;2.00;;;;;21.65;100.00;100812.53;5015658;28;47446;-77
2023/07/01 00:30:17;;;;;;;;;1.00;1.00;;;;;21.66;100.00;100808.03;5015533;28;45494;-76
2023/07/01 00:32:43;;;;;;;;;1.00;1.00;;;;;21.65;100.00;100804.47;5016104;28;54828;-76
2023/07/01 00:35:08;;;;;;;;;0.67;0.00;;;;;21.65;100.00;100800.91;5016692;28;45222;-77
2023/07/01 00:37:33;;;;;;;;;1.00;1.00;;;;;21.65;100.00;100799.09;5015877;28;69811;-77
2023/07/01 00:39:59;;;;;;;;;1.00;1.00;;;;;21.63;100.00;100794.72;5015544;28;60370;-76
2023/07/01 00:42:24;;;;;;;;;1.00;1.00;;;;;21.66;100.00;100789.22;5015424;28;62984;-76
2023/07/01 00:44:49;;;;;;;;;2.00;2.00;;;;;21.68;100.00;100793.63;5014733;28;58714;-76
2023/07/01 00:47:17;;;;;;;;;1.67;1.67;;;;;21.70;100.00;100785.50;5015530;28;69092;-76
2023/07/01 00:49:43;;;;;;;;;3.33;2.00;;;;;21.65;100.00;100785.66;5008791;28;67353;-76
2023/07/01 00:52:08;;;;;;;;;1.67;1.00;;;;;21.64;100.00;100777.66;4997766;28;50912;-76
2023/07/01 00:54:34;;;;;;;;;1.33;1.33;;;;;21.62;100.00;100776.81;5015773;28;45859;-75
2023/07/01 00:57:03;;;;;;;;;1.00;1.00;;;;;21.59;100.00;100780.50;4997890;28;46632;-75
2023/07/01 00:59:30;;;;;;;;;3.00;1.00;;;;;21.58;100.00;100776.06;5015525;28;45500;-75
2023/07/01 01:01:56;;;;;;;;;1.00;1.00;;;;;21.54;100.00;100771.72;5016693;28;45408;-76
2023/07/01 01:04:29;;;;;;;;;1.33;1.00;;;;;21.53;100.00;100779.84;5015872;28;45543;-77
2023/07/01 01:07:21;;;;;;;;;2.00;2.00;;;;;21.46;100.00;100776.47;5007931;28;46406;-75
2023/07/01 01:09:49;;;;;;;;;1.33;1.33;;;;;21.43;100.00;100777.47;4997926;28;45456;-76
2023/07/01 01:12:16;;;;;;;;;1.00;1.00;;;;;21.35;100.00;100776.84;4998636;28;45384;-76
2023/07/01 01:14:43;;;;;;;;;1.67;1.67;;;;;21.33;100.00;100776.03;4996803;28;65185;-77
2023/07/01 01:17:12;;;;;;;;;1.00;1.00;;;;;21.27;100.00;100765.47;4997956;28;47252;-76
2023/07/01 01:19:41;;;;;;;;;1.33;1.33;;;;;21.21;100.00;100765.69;4998205;28;45451;-76
2023/07/01 01:22:14;;;;;;;;;2.67;1.00;;;;;21.12;100.00;100763.31;4997829;28;45325;-76
2023/07/01 01:24:42;;;;;;;;;1.00;1.00;;;;;21.08;100.00;100764.34;4998673;28;45312;-76
2023/07/01 01:27:11;;;;;;;;;1.00;1.00;;;;;21.03;100.00;100756.44;5014703;28;46639;-76
2023/07/01 01:29:37;;;;;;;;;2.00;2.00;;;;;21.03;100.00;100748.38;4994575;28;45380;-75
2023/07/01 01:32:02;;;;;;;;;3.33;1.33;;;;;21.05;100.00;100748.34;5017545;28;65493;-76
2023/07/01 01:34:27;;;;;;;;;1.00;1.00;;;;;21.05;100.00;100745.66;5019412;28;45585;-75
2023/07/01 01:36:54;;;;;;;;;2.00;1.00;;;;;21.07;100.00;100746.47;5000679;28;47435;-76
2023/07/01 01:39:23;;;;;;;;;1.67;1.67;;;;;21.08;100.00;100740.16;5000939;28;45443;-75
2023/07/01 01:41:55;;;;;;;;;3.00;1.67;;;;;21.09;100.00;100745.50;5001207;28;45246;-75
2023/07/01 01:44:37;;;;;;;;;1.00;1.00;;;;;21.10;100.00;100744.56;5019484;28;45275;-76
2023/07/01 01:47:04;;;;;;;;;1.00;1.00;;;;;21.08;100.00;100734.81;5018517;28;47418;-76
2023/07/01 01:49:31;;;;;;;;;2.00;2.00;;;;;21.07;100.00;100741.09;4999522;28;45460;-75
2023/07/01 01:51:57;;;;;;;;;1.00;1.00;;;;;21.02;100.00;100738.56;5018970;28;45301;-76
2023/07/01 01:54:23;;;;;;;;;1.00;1.00;;;;;20.99;100.00;100738.69;4999793;28;63293;-76
2023/07/01 01:56:48;;;;;;;;;1.00;1.00;;;;;20.99;100.00;100727.06;4996195;28;72516;-75
2023/07/01 01:59:13;;;;;;;;;0.00;0.00;;;;;20.97;100.00;100728.91;5000220;28;45451;-76
2023/07/01 02:01:39;;;;;;;;;1.00;1.00;;;;;20.96;100.00;100727.16;5000839;28;45329;-76
2023/07/01 02:04:04;;;;;;;;;1.33;1.33;;;;;20.95;100.00;100718.25;5015403;28;63315;-76
2023/07/01 02:06:30;;;;;;;;;3.00;2.00;;;;;20.95;100.00;100720.06;5017013;28;47874;-76
2023/07/01 02:08:55;;;;;;;;;1.67;1.67;;;;;20.94;100.00;100721.88;5018615;28;55525;-76
2023/07/01 02:11:20;;;;;;;;;2.67;1.00;;;;;20.92;100.00;100716.53;5017211;28;64889;-76
2023/07/01 02:13:46;;;;;;;;;2.00;2.00;;;;;20.90;100.00;100712.16;5016482;28;61741;-76
2023/07/01 02:16:11;;;;;;;;;0.00;0.00;;;;;20.88;100.00;100711.34;5017244;28;70380;-75
2023/07/01 02:18:36;;;;;;;;;1.00;1.00;;;;;20.89;100.00;100705.03;5017264;28;51684;-76
2023/07/01 02:21:04;;;;;;;;;1.00;1.00;;;;;20.90;100.00;100702.28;5018090;28;45411;-76
2023/07/01 02:23:29;;;;;;;;;1.00;1.00;;;;;20.87;100.00;100696.13;5018618;28;45619;-77
2023/07/01 02:25:55;;;;;;;;;1.00;1.00;;;;;20.89;100.00;100696.97;5017719;28;64972;-76
2023/07/01 02:28:20;;;;;;;;;1.00;1.00;;;;;20.86;100.00;100694.38;5018115;28;45424;-76
2023/07/01 02:30:45;;;;;;;;;1.00;1.00;;;;;20.85;100.00;100685.47;5016310;28;56931;-76
2023/07/01 02:33:11;;;;;;;;;1.00;1.00;;;;;20.88;100.00;100684.50;5018141;28;45431;-76
2023/07/01 02:35:36;;;;;;;;;1.00;0.00;;;;;20.88;100.00;100687.19;5017069;28;67504;-76
2023/07/01 02:38:01;;;;;;;;;0.33;0.33;;;;;20.93;100.00;100690.56;5018409;28;45420;-77
2023/07/01 02:40:27;;;;;;;;;1.00;1.00;;;;;20.95;100.00;100682.47;5017174;28;45341;-75
2023/07/01 02:42:53;;;;;;;;;0.67;0.67;;;;;20.94;100.00;100676.22;5018007;28;45127;-77
2023/07/01 02:45:18;;;;;;;;;1.00;1.00;;;;;20.91;100.00;100677.19;5017562;28;47563;-76
2023/07/01 02:47:43;;;;;;;;;0.00;0.00;;;;;20.89;100.00;100664.78;5017415;28;55718;-76
2023/07/01 02:50:09;;;;;;;;;0.00;0.00;;;;;20.87;100.00;100666.59;5017827;28;45487;-76
2023/07/01 02:52:34;;;;;;;;;0.00;0.00;;;;;20.86;100.00;100667.53;5017458;28;45456;-76
2023/07/01 02:54:59;;;;;;;;;2.00;0.67;;;;;20.85;100.00;100666.66;5017256;28;64797;-75
2023/07/01 02:57:25;;;;;;;;;0.33;0.33;;;;;20.87;100.00;100658.56;5017037;28;68285;-75
2023/07/01 02:59:50;;;;;;;;;1.00;1.00;;;;;20.83;100.00;100668.53;5017515;28;45144;-76
2023/07/01 03:02:16;;;;;;;;;2.00;1.00;;;;;20.84;100.00;100666.72;5016464;28;58737;-76
2023/07/01 03:04:41;;;;;;;;;0.67;0.67;;;;;20.82;100.00;100660.53;4993800;28;46546;-76
2023/07/01 03:07:07;;;;;;;;;2.00;1.00;;;;;20.83;100.00;100664.97;5017776;28;45507;-76
2023/07/01 03:09:32;;;;;;;;;0.00;0.00;;;;;20.78;100.00;100665.13;5017888;28;45270;-76
2023/07/01 03:11:57;;;;;;;;;0.67;0.67;;;;;20.82;100.00;100660.53;5016988;28;45396;-76
2023/07/01 03:14:23;;;;;;;;;2.00;0.33;;;;;20.82;100.00;100650.66;5016369;28;68941;-77
2023/07/01 03:16:49;;;;;;;;;0.00;0.00;;;;;20.83;100.00;100657.81;5016832;28;63656;-76
2023/07/01 03:19:15;;;;;;;;;1.00;1.00;;;;;20.81;100.00;100646.22;5017616;28;45321;-76
2023/07/01 03:21:40;;;;;;;;;0.00;0.00;;;;;20.81;100.00;100654.28;5016874;28;45636;-76
2023/07/01 03:24:06;;;;;;;;;1.00;1.00;;;;;20.83;100.00;100648.88;5015976;28;68171;-76
2023/07/01 03:26:31;;;;;;;;;1.00;1.00;;;;;20.83;100.00;100647.06;5016852;28;66401;-76
2023/07/01 03:28:56;;;;;;;;;1.00;1.00;;;;;20.85;100.00;100649.69;5016002;28;60673;-76
2023/07/01 03:31:22;;;;;;;;;0.67;0.67;;;;;20.84;100.00;100645.25;5017324;28;45689;-76
2023/07/01 03:33:48;;;;;;;;;3.00;1.00;;;;;20.82;100.00;100644.41;5016609;28;46736;-76
2023/07/01 03:36:14;;;;;;;;;3.00;1.00;;;;;20.80;100.00;100647.16;5016550;28;45481;-75
2023/07/01 03:38:39;;;;;;;;;0.00;0.00;;;;;20.79;100.00;100639.19;5017627;28;46425;-75
2023/07/01 03:41:07;;;;;;;;;2.33;1.00;;;;;20.78;100.00;100646.34;5015896;28;61306;-76
2023/07/01 03:43:32;;;;;;;;;0.00;0.00;;;;;20.75;100.00;100637.53;5015892;28;46674;-76
2023/07/01 03:45:58;;;;;;;;;1.67;1.00;;;;;20.73;100.00;100636.72;5016883;28;45477;-76
2023/07/01 03:48:23;;;;;;;;;0.00;0.00;;;;;20.73;100.00;100639.38;5016849;28;45461;-76
2023/07/01 03:50:48;;;;;;;;;1.00;1.00;;;;;20.67;100.00;100635.97;5016618;28;45599;-76
2023/07/01 03:53:14;;;;;;;;;2.67;1.00;;;;;20.67;100.00;100630.63;5016207;28;46110;-76
2023/07/01 03:55:40;;;;;;;;;1.00;1.00;;;;;20.69;100.00;100627.88;5015975;28;45431;-76
2023/07/01 03:58:05;;;;;;;;;1.00;0.00;;;;;20.69;100.00;100619.81;5016546;28;51715;-76
2023/07/01 04:00:30;;;;;;;;;2.00;1.00;;;;;20.70;100.00;100615.31;5015818;28;58867;-76
2023/07/01 04:03:02;;;;;;;;;0.67;0.00;;;;;20.73;100.00;100625.97;5015690;28;67390;-76
2023/07/01 04:05:27;;;;;;;;;0.00;0.00;;;;;20.69;100.00;100618.94;5013632;28;45300;-76
2023/07/01 04:07:52;;;;;;;;;1.00;1.00;;;;;20.72;100.00;100622.41;5016632;28;45509;-76
2023/07/01 04:10:18;;;;;;;;;0.00;0.00;;;;;20.71;100.00;100622.44;5016086;28;63232;-76
2023/07/01 04:12:43;;;;;;;;;0.00;0.00;;;;;20.71;100.00;100623.31;5015247;28;71051;-76
2023/07/01 04:15:12;;;;;;;;;0.00;0.00;;;;;20.70;100.00;100618.88;5016456;28;45495;-77
2023/07/01 04:17:40;;;;;;;;;0.00;0.00;;;;;20.69;100.00;100622.50;5016205;28;45202;-76
2023/07/01 04:20:06;;;;;;;;;0.00;0.00;;;;;20.68;100.00;100620.75;5009065;28;45441;-76
2023/07/01 04:22:32;;;;;;;;;0.33;0.33;;;;;20.69;100.00;100617.13;5004479;28;47254;-76
2023/07/01 04:24:57;;;;;;;;;0.00;0.00;;;;;20.68;100.00;100615.41;5010122;28;46013;-76
2023/07/01 04:27:23;;;;;;;;;1.00;1.00;;;;;20.65;100.00;100610.13;5015803;28;63897;-76
2023/07/01 04:29:48;;;;;;;;;0.00;0.00;;;;;20.64;100.00;100619.97;5012723;28;60088;-77
2023/07/01 04:32:13;;;;;;;;;0.00;0.00;;;;;20.66;100.00;100611.88;5014999;28;70393;-76
2023/07/01 04:34:39;;;;;;;;;0.00;0.00;;;;;20.63;100.00;100612.88;5015689;28;64500;-77
2023/07/01 04:37:05;;;;;;;;;0.00;0.00;;;;;20.64;100.00;100609.25;5014982;28;45405;-77
2023/07/01 04:39:30;;;;;;;;;0.00;0.00;;;;;20.62;100.00;100612.91;5009338;28;61306;-77
2023/07/01 04:41:55;;;;;;;;;0.33;0.00;;;;;20.61;100.00;100604.00;5015966;28;45775;-76
2023/07/01 04:44:24;;;;;;;;;0.00;0.00;;;;;20.63;100.00;100610.19;5015581;28;45392;-77
2023/07/01 04:46:49;;;;;;;;;0.00;0.00;;;;;20.63;100.00;100603.94;5016461;28;45355;-77
2023/07/01 04:49:15;;;;;;;;;0.00;0.00;;;;;20.62;100.00;100608.44;5015945;28;45390;-77
2023/07/01 04:51:41;;;;;;;;;0.33;0.33;;;;;20.67;100.00;100609.16;5015270;28;69430;-76
2023/07/01 04:54:06;;;;;;;;;0.00;0.00;;;;;20.68;100.00;100599.28;5014861;28;45350;-76
2023/07/01 04:56:31;;;;;;;;;0.00;0.00;;;;;20.73;100.00;100602.69;5014908;28;62648;-77
2023/07/01 04:58:57;;;;;;;;;0.00;0.00;;;;;20.75;100.00;100605.31;5015373;28;62874;-76
2023/07/01 05:01:22;;;;;;;;;0.00;0.00;;;;;20.78;100.00;100600.72;5013415;28;69931;-76
2023/07/01 05:03:48;;;;;;;;;0.00;0.00;;;;;20.78;100.00;100597.19;5015329;28;45333;-77
2023/07/01 05:06:13;;;;;;;;;0.00;0.00;;;;;20.83;100.00;100597.91;5014535;28;66945;-76
2023/07/01 05:08:38;;;;;;;;;0.00;0.00;;;;;20.81;100.00;100595.25;5013355;28;61250;-76
2023/07/01 05:11:04;;;;;;;;;0.00;0.00;;;;;20.79;100.00;100596.25;5119418;22;66836;-77
2023/07/01 05:13:29;;;;;;;;;0.00;0.00;;;;;20.75;100.00;100592.78;5034162;28;65215;-77
2023/07/01 05:15:54;;;;;;;;;0.00;0.00;;;;;20.75;100.00;100589.22;5033209;28;63277;-78
2023/07/01 05:18:20;;;;;;;;;0.00;0.00;;;;;20.75;100.00;100600.81;5033822;28;46443;-77
2023/07/01 05:20:45;;;;;;;;;0.00;0.00;;;;;20.74;100.00;100606.25;5032582;28;46590;-76
2023/07/01 05:23:10;;;;;;;;;0.00;0.00;;;;;20.74;100.00;100606.25;5034386;28;65139;-77
2023/07/01 05:25:36;;;;;;;;;0.00;0.00;;;;;20.71;100.00;100593.81;5034600;28;65160;-76
2023/07/01 05:28:01;;;;;;;;;0.00;0.00;;;;;20.77;100.00;100607.00;5034518;28;63897;-77
2023/07/01 05:30:26;;;;;;;;;0.00;0.00;;;;;20.79;100.00;100590.88;5032093;28;70570;-77
2023/07/01 05:32:52;;;;;;;;;0.00;0.00;;;;;20.80;100.00;100592.63;5034456;28;65907;-78
2023/07/01 05:35:17;;;;;;;;;0.00;0.00;;;;;20.84;100.00;100599.63;5035321;28;45457;-78
2023/07/01 05:37:42;;;;;;;;;0.00;0.00;;;;;20.85;100.00;100602.25;5035380;28;52833;-78
2023/07/01 05:40:08;;;;;;;;;0.00;0.00;;;;;20.82;100.00;100599.66;5034633;28;71339;-77
2023/07/01 05:42:34;;;;;;;;;0.00;0.00;;;;;20.81;100.00;100595.25;5034375;28;45795;-78
2023/07/01 05:44:59;;;;;;;;;0.00;0.00;;;;;20.85;100.00;100596.91;5035060;28;45619;-79
2023/07/01 05:47:24;;;;;;;;;0.00;0.00;;;;;20.87;100.00;100597.69;5034867;28;45413;-78
2023/07/01 05:49:50;;;;;;;;;0.00;0.00;;;;;20.91;100.00;100596.66;5034997;28;45771;-77
2023/07/01 05:52:15;;;;;;;;;0.00;0.00;;;;;20.95;100.00;100599.25;5034589;28;48488;-77
2023/07/01 05:54:40;;;;;;;;;0.00;0.00;;;;;21.02;100.00;100593.59;5027396;28;61750;-75
2023/07/01 05:57:06;;;;;;;;;0.00;0.00;;;;;21.08;100.00;100600.56;5029640;28;63283;-75
2023/07/01 05:59:31;;;;;;;;;0.00;0.00;;;;;21.12;100.00;100605.75;5027571;28;66232;-75
2023/07/01 06:01:56;;;;;;;;;0.00;0.00;;;;;21.14;100.00;100603.88;5031204;28;65232;-76
2023/07/01 06:04:22;;;;;;;;;0.33;0.00;;;;;21.14;100.00;100603.88;5031028;28;60805;-78
2023/07/01 06:06:47;;;;;;;;;0.00;0.00;;;;;21.15;100.00;100600.31;5033042;28;45401;-76
2023/07/01 06:09:15;;;;;;;;;0.00;0.00;;;;;21.18;100.00;100600.16;5032187;28;72194;-76
2023/07/01 06:11:40;;;;;;;;;0.00;0.00;;;;;21.25;100.00;100605.31;5026641;28;45334;-77
2023/07/01 06:14:06;;;;;;;;;0.00;0.00;;;;;21.29;100.00;100599.78;5034468;28;63021;-76
2023/07/01 06:16:31;;;;;;;;;0.00;0.00;;;;;21.31;100.00;100606.03;5037208;28;45404;-79
2023/07/01 06:18:56;;;;;;;;;0.00;0.00;;;;;21.36;100.00;100593.28;5035718;28;46162;-76
2023/07/01 06:21:22;;;;;;;;;1.00;0.00;;;;;21.45;100.00;100592.94;5033300;28;65513;-76
2023/07/01 06:23:47;;;;;;;;;0.00;0.00;;;;;21.49;100.00;100592.81;5036526;28;46905;-76
2023/07/01 06:26:13;;;;;;;;;0.00;0.00;;;;;21.48;100.00;100591.94;5035060;28;45541;-76
2023/07/01 06:28:38;;;;;;;;;0.00;0.00;;;;;21.47;100.00;100589.34;5037236;28;46087;-76
2023/07/01 06:31:03;;;;;;;;;0.00;0.00;;;;;21.48;100.00;100593.78;5030871;28;45452;-77
2023/07/01 06:33:29;;;;;;;;;1.00;1.00;;;;;21.48;100.00;100591.09;5036495;28;64446;-78
2023/07/01 06:35:54;;;;;;;;;0.00;0.00;;;;;21.49;100.00;100587.47;5037197;28;45559;-78
2023/07/01 06:38:20;;;;;;;;;1.00;0.00;;;;;21.53;100.00;100581.91;5036759;28;69104;-79
2023/07/01 06:40:45;;;;;;;;;0.00;0.00;;;;;21.60;100.00;100583.41;5036816;28;45422;-78
2023/07/01 06:43:11;;;;;;;;;0.00;0.00;;;;;21.71;100.00;100588.38;5037296;28;45516;-78
2023/07/01 06:45:37;;;;;;;;;0.00;0.00;;;;;21.76;100.00;100581.00;5038160;28;45441;-78
2023/07/01 06:48:03;;;;;;;;;1.00;0.00;;;;;21.79;100.00;100575.53;5035191;28;47137;-78
2023/07/01 06:50:29;;;;;;;;;2.00;0.00;;;;;21.86;100.00;100577.03;5037093;28;45379;-78
2023/07/01 06:52:54;;;;;;;;;0.00;0.00;;;;;21.86;100.00;100584.22;5036526;28;62208;-79
2023/07/01 06:55:19;;;;;;;;;0.00;0.00;;;;;21.82;100.00;100579.91;5036774;28;46882;-79
2023/07/01 06:57:45;;;;;;;;;0.00;0.00;;;;;21.79;100.00;100577.34;5036774;28;58718;-79
2023/07/01 07:00:12;;;;;;;;;0.00;0.00;;;;;21.81;100.00;100587.09;5037817;28;45338;-78
2023/07/01 07:02:37;;;;;;;;;0.00;0.00;;;;;21.82;100.00;100582.56;5034251;28;45383;-79
2023/07/01 07:05:04;;;;;;;;;0.00;0.00;;;;;21.80;100.00;100581.78;5036553;28;45345;-79
2023/07/01 07:07:29;;;;;;;;;0.00;0.00;;;;;21.79;100.00;100586.28;5037116;28;47958;-78
2023/07/01 07:09:55;;;;;;;;;0.00;0.00;;;;;21.75;100.00;100587.31;5032300;28;45518;-78
2023/07/01 07:12:20;;;;;;;;;0.00;0.00;;;;;21.74;100.00;100596.34;5031903;28;45429;-76
2023/07/01 07:14:45;;;;;;;;;0.00;0.00;;;;;21.75;100.00;100583.75;5034659;28;60520;-78
2023/07/01 07:17:11;;;;;;;;;0.00;0.00;;;;;21.79;100.00;100586.28;5034620;28;70213;-78
2023/07/01 07:19:37;;;;;;;;;0.00;0.00;;;;;21.83;100.00;100593.25;5033886;28;67099;-78
2023/07/01 07:22:02;;;;;;;;;0.00;0.00;;;;;21.85;100.00;100590.53;5035084;28;45456;-78
2023/07/01 07:24:28;;;;;;;;;0.00;0.00;;;;;21.85;100.00;100583.34;5036849;28;45582;-76
2023/07/01 07:26:57;;;;;;;;;0.00;0.00;;;;;21.90;100.00;100593.91;5032895;28;46547;-76
2023/07/01 07:29:27;;;;;;;;;0.00;0.00;;;;;21.93;100.00;100581.22;5033175;28;45527;-77
2023/07/01 07:31:52;;;;;;;;;0.00;0.00;;;;;22.01;100.00;100582.75;5034253;28;45418;-76
2023/07/01 07:34:18;;;;;;;;;0.00;0.00;;;;;22.09;100.00;100577.91;5034939;28;45422;-77
2023/07/01 07:36:43;;;;;;;;;0.00;0.00;;;;;22.16;100.00;100574.97;5034441;28;66788;-77
2023/07/01 07:39:10;;;;;;;;;2.00;0.00;;;;;22.26;100.00;100590.69;5035124;28;45466;-77
2023/07/01 07:41:35;;;;;;;;;0.00;0.00;;;;;22.26;100.00;100580.81;5036289;28;45443;-77
2023/07/01 07:44:00;;;;;;;;;0.00;0.00;;;;;22.32;100.00;100582.38;5033095;28;45476;-77
2023/07/01 07:46:26;;;;;;;;;0.00;0.00;;;;;22.33;100.00;100573.38;5035691;28;70318;-76
2023/07/01 07:48:51;;;;;;;;;1.00;1.00;;;;;22.38;100.00;100569.56;5034998;28;45398;-78
2023/07/01 07:51:17;;;;;;;;;0.00;0.00;;;;;22.45;100.00;100576.41;5033163;28;58795;-77
2023/07/01 07:53:42;;;;;;;;;0.00;0.00;;;;;22.49;100.00;100574.50;5023181;28;45663;-77
2023/07/01 07:56:07;;;;;;;;;0.00;0.00;;;;;22.53;100.00;100570.72;5032969;28;47431;-77
2023/07/01 07:58:33;;;;;;;;;1.33;0.00;;;;;22.52;100.00;100566.25;5034104;28;68577;-77
2023/07/01 08:00:58;;;;;;;;;0.00;0.00;;;;;22.53;100.00;100565.34;5034989;28;46585;-79
2023/07/01 08:03:23;;;;;;;;;2.00;1.00;;;;;22.60;100.00;100561.44;5034034;28;62517;-76
2023/07/01 08:05:49;;;;;;;;;0.00;0.00;;;;;22.63;100.00;100571.19;5040230;28;47023;-76
2023/07/01 08:08:15;;;;;;;;;0.00;0.00;;;;;22.64;100.00;100568.47;5033750;28;45475;-76
2023/07/01 08:10:45;;;;;;;;;0.00;0.00;;;;;22.65;100.00;100564.81;5030188;28;45514;-76
2023/07/01 08:13:11;;;;;;;;;0.00;0.00;;;;;22.62;100.00;100573.00;5034574;28;45397;-75
2023/07/01 08:15:36;;;;;;;;;0.00;0.00;;;;;22.54;100.00;100569.78;5035205;28;46489;-75
2023/07/01 08:18:02;;;;;;;;;0.00;0.00;;;;;22.48;100.00;100580.81;5036565;28;45469;-76
2023/07/01 08:20:27;;;;;;;;;0.00;0.00;;;;;22.33;100.00;100594.91;5035790;28;45577;-76
2023/07/01 08:22:53;;;;;;;;;0.00;0.00;;;;;22.15;100.00;100605.44;5036438;28;45557;-76
2023/07/01 08:25:18;;;;;;;;;0.00;0.00;;;;;21.93;100.00;100631.41;5034316;28;46503;-75
2023/07/01 08:27:43;;;;;;;;;1.33;0.33;;;;;21.55;100.00;100640.94;5033848;28;61725;-75
2023/07/01 08:30:09;;;;;;;;;0.00;0.00;;;;;20.95;100.00;100644.91;5033732;28;45529;-74
2023/07/01 08:32:35;;;;;;;;;0.00;0.00;;;;;20.46;100.00;100634.03;5033806;28;45671;-75
2023/07/01 08:35:00;;;;;;;;;0.00;0.00;;;;;20.12;100.00;100645.78;5035369;28;47451;-75
2023/07/01 08:37:25;;;;;;;;;0.00;0.00;;;;;19.88;100.00;100643.88;5032023;28;45538;-75
2023/07/01 08:39:51;;;;;;;;;0.00;0.00;;;;;19.75;100.00;100637.97;5035301;28;45441;-76
2023/07/01 08:42:20;;;;;;;;;0.00;0.00;;;;;19.72;100.00;100640.78;5034037;28;46995;-75
2023/07/01 08:44:46;;;;;;;;;0.00;0.00;;;;;19.77;100.00;100643.31;5040640;28;46761;-75
2023/07/01 08:47:12;;;;;;;;;0.00;0.00;;;;;19.80;100.00;100644.06;5032018;28;46407;-75
2023/07/01 08:49:40;;;;;;;;;0.33;0.00;;;;;19.79;100.00;100654.84;5035239;28;45526;-74
2023/07/01 08:52:06;;;;;;;;;0.00;0.00;;;;;19.84;100.00;100642.19;5034666;28;62960;-74
2023/07/01 08:54:36;;;;;;;;;0.00;0.00;;;;;19.93;100.00;100643.72;5035446;28;47639;-73
2023/07/01 08:57:01;;;;;;;;;0.67;0.00;;;;;19.91;100.00;100630.34;5034368;28;45475;-73
2023/07/01 08:59:27;;;;;;;;;0.00;0.00;;;;;19.91;100.00;100618.75;5033841;28;45566;-74
2023/07/01 09:01:53;;;;;;;;;0.00;0.00;;;;;19.95;100.00;100621.31;5033376;28;45458;-74
2023/07/01 09:04:19;;;;;;;;;3.33;0.33;;;;;20.02;100.00;100624.66;5031154;28;45697;-74
2023/07/01 09:06:44;;;;;;;;;0.67;0.67;;;;;20.04;100.00;100622.84;5034055;28;56816;-73
2023/07/01 09:09:09;;;;;;;;;0.33;0.33;;;;;20.09;100.00;100618.22;5035216;28;45695;-74
2023/07/01 09:11:35;;;;;;;;;0.00;0.00;;;;;20.18;100.00;100609.84;5034831;28;45320;-74
2023/07/01 09:14:02;;;;;;;;;0.00;0.00;;;;;20.36;100.00;100611.94;5033157;28;47435;-75
2023/07/01 09:16:35;;;;;;;;;0.00;0.00;;;;;20.59;100.00;100613.88;5033021;28;45532;-75
2023/07/01 09:19:10;;;;;;;;;0.00;0.00;;;;;20.81;100.00;100615.84;5031468;28;45563;-75
2023/07/01 09:21:36;;;;;;;;;0.00;0.00;;;;;21.07;100.00;100607.75;5029002;28;45850;-75
2023/07/01 09:24:02;;;;;;;;;0.00;0.00;;;;;21.24;100.00;100600.88;5027986;28;46444;-76
2023/07/01 09:26:30;;;;;;;;;0.00;0.00;;;;;21.39;100.00;100601.22;5034223;28;45268;-76
2023/07/01 09:28:56;;;;;;;;;0.00;0.00;;;;;21.45;100.00;100592.06;5033454;28;45372;-75
2023/07/01 09:31:22;;;;;;;;;0.00;0.00;;;;;21.44;100.00;100610.00;5033849;28;45423;-76
2023/07/01 09:33:59;;;;;;;;;0.00;0.00;;;;;21.28;100.00;100605.22;5031239;28;72236;-74
2023/07/01 09:36:25;;;;;;;;;0.00;0.00;;;;;21.08;100.00;100606.81;5034988;28;45434;-75
2023/07/01 09:38:52;;;;;;;;;0.00;0.00;;;;;20.98;100.00;100604.50;5033380;28;45352;-75
2023/07/01 09:41:19;;;;;;;;;0.00;0.00;;;;;21.01;100.00;100601.72;5033111;28;46968;-76
2023/07/01 09:43:44;;;;;;;;;0.00;0.00;;;;;21.10;100.00;100604.09;5023359;28;47336;-75
2023/07/01 09:46:09;;;;;;;;;0.00;0.00;;;;;21.17;100.00;100603.78;5033869;28;45501;-75
2023/07/01 09:48:36;;;;;;;;;0.00;0.00;;;;;21.28;100.00;100603.41;5033480;28;45579;-76
2023/07/01 09:51:04;;;;;;;;;0.00;0.00;;;;;21.48;100.00;100607.19;5036908;28;45550;-75
2023/07/01 09:53:34;;;;;;;;;0.00;0.00;;;;;21.65;100.00;100597.56;5038260;28;45847;-76
2023/07/01 09:56:03;;;;;;;;;0.00;0.00;;;;;21.81;100.00;100592.47;5037041;28;45275;-76
2023/07/01 09:58:31;;;;;;;;;0.00;0.00;;;;;22.07;100.00;100583.34;5037493;28;45372;-75
2023/07/01 10:00:57;;;;;;;;;0.00;0.00;;;;;22.23;100.00;100587.22;5033656;28;45495;-75
2023/07/01 10:03:25;;;;;;;;;0.00;0.00;;;;;22.34;100.00;100573.31;5037965;28;46526;-76
2023/07/01 10:05:51;;;;;;;;;0.00;0.00;;;;;22.43;100.00;100566.69;5037785;28;45621;-76
2023/07/01 10:08:16;;;;;;;;;0.00;0.00;;;;;22.57;100.00;100575.03;5037516;28;45272;-75
2023/07/01 10:10:42;;;;;;;;;0.00;0.00;;;;;22.62;100.00;100566.75;5038315;28;54871;-76
2023/07/01 10:13:08;;;;;;;;;0.67;0.00;;;;;22.74;100.00;100569.81;5037037;28;46746;-76
2023/07/01 10:15:34;;;;;;;;;0.00;0.00;;;;;22.83;100.00;100559.56;5034432;28;69234;-76
2023/07/01 10:17:59;;;;;;;;;0.00;0.00;;;;;22.86;100.00;100571.09;5038321;28;45501;-76
2023/07/01 10:20:33;;;;;;;;;0.00;0.00;;;;;22.80;100.00;100562.38;5035975;28;64496;-75
2023/07/01 10:23:01;;;;;;;;;0.00;0.00;;;;;22.89;100.00;100567.41;5038206;28;47247;-76
2023/07/01 10:25:35;;;;;;;;;0.00;0.00;;;;;23.00;100.00;100563.28;5037665;28;45578;-76
2023/07/01 10:28:00;;;;;;;;;0.00;0.00;;;;;23.11;100.00;100561.94;5038460;28;45265;-75
2023/07/01 10:30:27;;;;;;;;;0.00;0.00;;;;;23.15;100.00;100572.50;5038166;28;45482;-75
2023/07/01 10:32:52;;;;;;;;;0.00;0.00;;;;;23.20;100.00;100558.81;5034341;28;46560;-76
2023/07/01 10:35:17;;;;;;;;;0.00;0.00;;;;;23.31;100.00;100563.72;5036954;28;69064;-76
2023/07/01 10:38:04;;;;;;;;;0.33;0.33;;;;;23.44;100.00;100560.41;5037862;28;45577;-76
2023/07/01 10:40:29;;;;;;;;;0.00;0.00;;;;;23.62;100.00;100555.94;5037944;28;45427;-76
2023/07/01 10:43:22;;;;;;;;;1.33;0.00;;;;;23.72;100.00;100561.81;5037452;28;46895;-76
2023/07/01 10:46:21;;;;;;;;;0.00;0.00;;;;;23.74;100.00;100555.41;5035869;28;45586;-75
2023/07/01 10:49:05;;;;;;;;;0.00;0.00;;;;;23.71;100.00;100557.38;5037460;28;45316;-76
2023/07/01 10:51:31;;;;;;;;;1.00;1.00;;;;;23.70;100.00;100559.22;5034575;28;45423;-75
2023/07/01 10:54:04;;;;;;;;;0.67;0.67;;;;;23.71;100.00;100543.91;5036101;28;47857;-75
2023/07/01 10:56:31;;;;;;;;;2.00;2.00;;;;;23.80;100.00;100556.91;5037408;28;45466;-74
2023/07/01 10:59:18;;;;;;;;;1.00;1.00;;;;;23.91;100.00;100546.47;5035543;28;45264;-75
2023/07/01 11:01:47;;;;;;;;;1.33;1.00;;;;;24.10;100.00;100543.75;5037303;28;45404;-76
2023/07/01 11:04:12;;;;;;;;;0.00;0.00;;;;;24.31;100.00;100544.53;5037052;28;45894;-75
2023/07/01 11:06:50;;;;;;;;;2.00;1.00;;;;;24.48;100.00;100536.47;5036492;28;57750;-76
2023/07/01 11:09:27;;;;;;;;;1.00;1.00;;;;;24.70;100.00;100541.63;5037357;28;45522;-75
2023/07/01 11:11:53;;;;;;;;;1.00;1.00;;;;;24.79;100.00;100535.75;5036746;28;45891;-75
2023/07/01 11:14:19;;;;;;;;;1.00;1.00;;;;;24.75;100.00;100553.06;5036232;28;46659;-74